createdAt,value
2019-05-03T00:00:12.695Z,8.91
2019-05-03T00:02:54.020Z,8.86
2019-05-03T00:05:25.833Z,8.93
2019-05-03T00:07:53.698Z,8.88
2019-05-03T00:10:22.233Z,8.94
2019-05-03T00:12:49.039Z,8.89
2019-05-03T00:15:21.599Z,8.82
2019-05-03T00:17:48.308Z,8.78
2019-05-03T00:20:15.149Z,8.80
2019-05-03T00:22:42.774Z,8.78
2019-05-03T00:25:09.676Z,8.77
2019-05-03T00:27:37.117Z,8.74
2019-05-03T00:30:03.898Z,8.69
2019-05-03T00:32:32.067Z,8.72
2019-05-03T00:35:11.923Z,8.76
2019-05-03T00:37:42.006Z,8.66
2019-05-03T00:40:12.249Z,8.62
2019-05-03T00:42:39.292Z,8.63
2019-05-03T00:45:07.453Z,8.70
2019-05-03T00:47:35.057Z,8.64
2019-05-03T00:50:02.788Z,8.61
2019-05-03T00:52:31.701Z,8.75
2019-05-03T00:54:59.056Z,8.74
2019-05-03T00:57:28.074Z,8.69
2019-05-03T00:59:54.882Z,8.65
2019-05-03T01:02:22.367Z,8.54
2019-05-03T01:04:51.793Z,8.65
2019-05-03T01:07:19.072Z,8.62
2019-05-03T01:09:45.918Z,8.51
2019-05-03T01:12:12.859Z,8.54
2019-05-03T01:14:42.122Z,8.53
2019-05-03T01:17:09.067Z,8.60
2019-05-03T01:19:36.053Z,8.57
2019-05-03T01:22:02.899Z,8.59
2019-05-03T01:24:32.116Z,8.52
2019-05-03T01:26:58.414Z,8.44
2019-05-03T01:29:25.275Z,8.43
2019-05-03T01:31:52.829Z,8.43
2019-05-03T01:34:21.399Z,8.48
2019-05-03T01:36:48.257Z,8.34
2019-05-03T01:39:14.956Z,8.43
2019-05-03T01:41:41.968Z,8.41
2019-05-03T01:44:09.966Z,8.42
2019-05-03T01:46:36.781Z,8.41
2019-05-03T01:49:05.774Z,8.45
2019-05-03T01:51:42.057Z,8.37
2019-05-03T01:54:09.010Z,8.48
2019-05-03T01:56:35.883Z,8.46
2019-05-03T01:59:03.149Z,8.48
2019-05-03T02:01:34.595Z,8.46
2019-05-03T02:04:09.023Z,8.42
2019-05-03T02:06:36.286Z,8.41
2019-05-03T02:09:04.714Z,8.47
2019-05-03T02:11:33.456Z,8.42
2019-05-03T02:14:01.709Z,8.49
2019-05-03T02:16:32.389Z,8.52
2019-05-03T02:18:59.124Z,8.48
2019-05-03T02:21:27.718Z,8.54
2019-05-03T02:23:55.720Z,8.57
2019-05-03T02:26:22.528Z,8.53
2019-05-03T02:28:49.989Z,8.48
2019-05-03T02:31:16.810Z,8.53
2019-05-03T02:33:43.642Z,8.58
2019-05-03T02:36:13.300Z,8.51
2019-05-03T02:38:39.487Z,8.52
2019-05-03T02:41:07.046Z,8.52
2019-05-03T02:43:36.515Z,8.57
2019-05-03T02:46:11.124Z,8.50
2019-05-03T02:48:45.925Z,8.51
2019-05-03T02:51:15.422Z,8.55
2019-05-03T02:53:41.333Z,8.52
2019-05-03T02:56:18.217Z,8.45
2019-05-03T02:58:37.913Z,8.43
2019-05-03T03:01:06.491Z,8.46
2019-05-03T03:03:36.318Z,8.48
2019-05-03T03:06:06.386Z,8.49
2019-05-03T03:08:33.351Z,8.48
2019-05-03T03:11:02.139Z,8.44
2019-05-03T03:13:30.774Z,8.47
2019-05-03T03:16:00.162Z,8.40
2019-05-03T03:18:28.247Z,8.34
2019-05-03T03:20:56.872Z,8.37
2019-05-03T03:23:26.248Z,8.33
2019-05-03T03:25:55.826Z,8.36
2019-05-03T03:28:25.148Z,8.30
2019-05-03T03:31:28.537Z,8.32
2019-05-03T03:33:59.118Z,8.20
2019-05-03T03:36:48.605Z,8.10
2019-05-03T03:38:56.455Z,8.10
2019-05-03T03:41:24.930Z,7.98
2019-05-03T03:43:55.552Z,7.97
2019-05-03T03:46:25.154Z,7.95
2019-05-03T03:48:55.929Z,7.96
2019-05-03T03:51:22.685Z,7.92
2019-05-03T03:53:50.058Z,7.82
2019-05-03T03:56:18.802Z,7.82
2019-05-03T03:58:46.424Z,7.79
2019-05-03T04:01:15.676Z,7.82
2019-05-03T04:03:42.498Z,7.91
2019-05-03T04:06:09.575Z,7.94
2019-05-03T04:08:36.584Z,7.99
2019-05-03T04:11:06.056Z,7.98
2019-05-03T04:13:32.795Z,7.90
2019-05-03T04:16:20.938Z,7.91
2019-05-03T04:18:55.005Z,7.98
2019-05-03T04:21:21.180Z,7.99
2019-05-03T04:23:48.563Z,8.01
2019-05-03T04:26:16.216Z,7.83
2019-05-03T04:28:45.347Z,7.89
2019-05-03T04:31:15.058Z,7.90
2019-05-03T04:33:41.023Z,7.88
2019-05-03T04:36:07.973Z,7.82
2019-05-03T04:38:35.436Z,7.98
2019-05-03T04:41:05.596Z,8.01
2019-05-03T04:43:31.593Z,8.00
2019-05-03T04:46:06.191Z,7.93
2019-05-03T04:48:31.805Z,8.02
2019-05-03T04:50:58.575Z,8.01
2019-05-03T04:53:25.909Z,8.05
2019-05-03T04:55:55.771Z,8.46
2019-05-03T04:58:22.154Z,8.46
2019-05-03T05:00:49.345Z,8.76
2019-05-03T05:03:16.152Z,10.10
2019-05-03T05:05:45.121Z,9.43
2019-05-03T05:08:11.605Z,8.73
2019-05-03T05:10:38.649Z,9.05
2019-05-03T05:13:05.574Z,10.33
2019-05-03T05:15:35.341Z,9.67
2019-05-03T05:18:07.047Z,10.43
2019-05-03T05:20:45.440Z,11.13
2019-05-03T05:23:14.607Z,10.94
2019-05-03T05:25:55.222Z,11.13
2019-05-03T05:28:24.996Z,11.26
2019-05-03T05:30:51.968Z,10.50
2019-05-03T05:33:21.663Z,10.59
2019-05-03T05:35:48.623Z,10.50
2019-05-03T05:38:15.391Z,10.60
2019-05-03T05:40:42.127Z,11.20
2019-05-03T05:43:08.820Z,11.97
2019-05-03T05:45:35.577Z,12.49
2019-05-03T05:48:05.524Z,12.87
2019-05-03T05:50:34.745Z,13.19
2019-05-03T05:53:23.075Z,12.88
2019-05-03T05:55:52.000Z,11.93
2019-05-03T05:58:26.640Z,11.96
2019-05-03T06:00:55.281Z,11.95
2019-05-03T06:03:22.160Z,11.66
2019-05-03T06:05:49.011Z,10.70
2019-05-03T06:08:32.382Z,10.79
2019-05-03T06:11:01.115Z,10.40
2019-05-03T06:13:45.980Z,10.54
2019-05-03T06:16:34.848Z,10.93
2019-05-03T06:19:06.873Z,10.85
2019-05-03T06:21:54.852Z,11.12
2019-05-03T06:24:26.458Z,11.34
2019-05-03T06:27:05.002Z,11.26
2019-05-03T06:29:32.245Z,11.53
2019-05-03T06:32:01.220Z,11.42
2019-05-03T06:34:28.311Z,11.69
2019-05-03T06:37:00.345Z,11.53
2019-05-03T06:39:28.843Z,11.86
2019-05-03T06:41:55.867Z,11.16
2019-05-03T06:44:24.754Z,11.33
2019-05-03T06:46:52.358Z,11.37
2019-05-03T06:49:19.359Z,11.35
2019-05-03T06:51:49.744Z,11.15
2019-05-03T06:54:15.772Z,10.69
2019-05-03T06:56:42.791Z,10.78
2019-05-03T06:59:20.296Z,11.03
2019-05-03T07:01:55.239Z,11.24
2019-05-03T07:04:26.493Z,12.21
2019-05-03T07:07:11.707Z,14.01
2019-05-03T07:09:58.623Z,14.76
2019-05-03T07:12:25.604Z,13.61
2019-05-03T07:14:52.431Z,11.79
2019-05-03T07:17:19.425Z,10.89
2019-05-03T07:19:46.407Z,11.05
2019-05-03T07:22:15.136Z,10.96
2019-05-03T07:24:41.941Z,10.79
2019-05-03T07:27:09.087Z,10.66
2019-05-03T07:29:36.663Z,13.03
2019-05-03T07:32:05.207Z,11.15
2019-05-03T07:34:32.122Z,11.75
2019-05-03T07:36:58.868Z,10.85
2019-05-03T07:39:25.473Z,10.82
2019-05-03T07:41:55.082Z,10.61
2019-05-03T07:44:21.824Z,10.63
2019-05-03T07:46:48.799Z,11.37
2019-05-03T07:49:15.512Z,11.14
2019-05-03T07:51:42.569Z,10.55
2019-05-03T07:54:09.588Z,10.62
2019-05-03T07:56:41.066Z,10.31
2019-05-03T07:59:07.984Z,10.18
2019-05-03T08:01:36.668Z,9.98
2019-05-03T08:04:05.294Z,10.12
2019-05-03T08:06:32.087Z,10.07
2019-05-03T08:08:58.800Z,10.24
2019-05-03T08:11:25.904Z,10.42
2019-05-03T08:13:54.909Z,10.52
2019-05-03T08:16:21.319Z,10.42
2019-05-03T08:18:48.272Z,10.37
2019-05-03T08:21:15.203Z,10.39
2019-05-03T08:23:41.731Z,10.32
2019-05-03T08:26:08.918Z,10.13
2019-05-03T08:28:35.736Z,10.57
2019-05-03T08:31:07.085Z,10.72
2019-05-03T08:33:38.178Z,10.71
2019-05-03T08:36:05.313Z,10.70
2019-05-03T08:38:34.445Z,10.82
2019-05-03T08:41:02.695Z,11.49
2019-05-03T08:43:29.494Z,13.30
2019-05-03T08:45:56.369Z,12.42
2019-05-03T08:48:24.997Z,11.85
2019-05-03T08:50:52.109Z,11.73
2019-05-03T08:53:18.812Z,11.51
2019-05-03T08:55:45.559Z,11.22
2019-05-03T08:58:12.810Z,11.42
2019-05-03T09:00:41.598Z,11.31
2019-05-03T09:03:09.572Z,11.20
2019-05-03T09:05:36.510Z,10.80
2019-05-03T09:08:05.607Z,10.63
2019-05-03T09:10:35.206Z,10.25
2019-05-03T09:13:06.194Z,10.33
2019-05-03T09:15:32.236Z,10.80
2019-05-03T09:17:58.862Z,11.65
2019-05-03T09:20:25.878Z,12.72
2019-05-03T09:22:52.529Z,13.70
2019-05-03T09:25:19.259Z,13.95
2019-05-03T09:27:46.411Z,13.73
2019-05-03T09:30:14.544Z,13.45
2019-05-03T09:32:41.574Z,14.48
2019-05-03T09:35:10.740Z,15.83
2019-05-03T09:37:37.662Z,15.98
2019-05-03T09:40:06.085Z,15.49
2019-05-03T09:42:35.115Z,14.38
2019-05-03T09:45:01.678Z,14.89
2019-05-03T09:47:28.624Z,14.08
2019-05-03T09:49:55.869Z,13.28
2019-05-03T09:52:24.985Z,12.57
2019-05-03T09:54:56.010Z,11.97
2019-05-03T09:57:24.638Z,11.70
2019-05-03T09:59:57.179Z,11.49
2019-05-03T10:02:19.843Z,11.32
2019-05-03T10:04:46.472Z,11.10
2019-05-03T10:07:15.364Z,12.49
2019-05-03T10:09:42.052Z,13.93
2019-05-03T10:12:10.809Z,13.67
2019-05-03T10:14:37.618Z,14.51
2019-05-03T10:17:06.401Z,14.72
2019-05-03T10:19:39.849Z,15.43
2019-05-03T10:22:04.705Z,14.51
2019-05-03T10:24:31.623Z,13.30
2019-05-03T10:26:58.622Z,12.95
2019-05-03T10:29:25.649Z,13.75
2019-05-03T10:31:57.205Z,13.06
2019-05-03T10:34:24.825Z,12.64
2019-05-03T10:36:51.721Z,12.34
2019-05-03T10:39:18.579Z,13.06
2019-05-03T10:41:45.495Z,14.00
2019-05-03T10:44:12.253Z,14.38
2019-05-03T10:46:39.326Z,14.59
2019-05-03T10:49:06.029Z,15.19
2019-05-03T10:51:35.955Z,15.21
2019-05-03T10:54:05.077Z,14.87
2019-05-03T10:56:35.640Z,13.72
2019-05-03T10:59:09.903Z,12.95
2019-05-03T11:01:48.001Z,13.91
2019-05-03T11:04:15.157Z,15.13
2019-05-03T11:06:41.968Z,15.64
2019-05-03T11:09:09.035Z,15.48
2019-05-03T11:11:36.183Z,14.63
2019-05-03T11:14:05.235Z,15.77
2019-05-03T11:16:34.714Z,15.87
2019-05-03T11:19:02.344Z,15.98
2019-05-03T11:21:31.195Z,16.06
2019-05-03T11:23:58.654Z,15.31
2019-05-03T11:26:26.287Z,13.84
2019-05-03T11:28:59.256Z,14.47
2019-05-03T11:31:41.754Z,14.57
2019-05-03T11:34:11.666Z,13.81
2019-05-03T11:36:54.802Z,15.07
2019-05-03T11:39:21.752Z,17.47
2019-05-03T11:41:51.733Z,19.03
2019-05-03T11:44:37.549Z,19.01
2019-05-03T11:47:05.824Z,18.46
2019-05-03T11:49:34.832Z,17.07
2019-05-03T11:52:02.267Z,15.28
2019-05-03T11:54:29.278Z,14.45
2019-05-03T11:56:57.967Z,14.58
2019-05-03T11:59:25.516Z,14.17
2019-05-03T12:01:58.069Z,14.34
2019-05-03T12:04:25.047Z,14.18
2019-05-03T12:06:52.040Z,13.44
2019-05-03T12:09:18.828Z,12.41
2019-05-03T12:11:45.635Z,12.14
2019-05-03T12:14:15.171Z,11.89
2019-05-03T12:17:17.411Z,11.61
2019-05-03T12:19:20.064Z,11.78
2019-05-03T12:21:44.086Z,12.89
2019-05-03T12:24:12.222Z,13.69
2019-05-03T12:26:43.449Z,13.22
2019-05-03T12:29:07.888Z,12.60
2019-05-03T12:31:40.203Z,12.56
2019-05-03T12:34:05.826Z,12.04
2019-05-03T12:36:35.965Z,13.22
2019-05-03T12:39:01.083Z,14.27
2019-05-03T12:41:30.344Z,14.93
2019-05-03T12:43:57.721Z,15.46
2019-05-03T12:46:26.246Z,15.14
2019-05-03T12:48:54.020Z,15.84
2019-05-03T12:51:21.372Z,15.84
2019-05-03T12:53:48.452Z,15.00
2019-05-03T12:56:23.199Z,15.28
2019-05-03T12:59:08.983Z,17.24
2019-05-03T13:01:47.646Z,19.10
2019-05-03T13:04:29.479Z,16.09
2019-05-03T13:07:01.106Z,15.26
2019-05-03T13:09:28.317Z,14.49
2019-05-03T13:11:58.894Z,14.05
2019-05-03T13:14:25.239Z,13.52
2019-05-03T13:16:52.769Z,13.38
2019-05-03T13:19:20.939Z,13.33
2019-05-03T13:21:48.621Z,13.05
2019-05-03T13:24:22.937Z,12.99
2019-05-03T13:26:45.809Z,13.33
2019-05-03T13:29:15.154Z,14.38
2019-05-03T13:31:57.855Z,14.07
2019-05-03T13:34:12.393Z,14.38
2019-05-03T13:36:39.724Z,14.38
2019-05-03T13:39:13.501Z,14.65
2019-05-03T13:41:37.620Z,14.53
2019-05-03T13:44:06.535Z,14.17
2019-05-03T13:46:35.348Z,14.00
2019-05-03T13:49:05.277Z,13.43
2019-05-03T13:51:32.845Z,13.27
2019-05-03T13:53:59.514Z,12.83
2019-05-03T13:56:26.605Z,12.82
2019-05-03T13:58:55.140Z,12.46
2019-05-03T14:01:22.463Z,12.08
2019-05-03T14:03:51.109Z,11.93
2019-05-03T14:06:17.831Z,11.64
2019-05-03T14:08:46.751Z,11.76
2019-05-03T14:11:15.427Z,11.86
2019-05-03T14:13:44.526Z,12.04
2019-05-03T14:16:10.931Z,12.10
2019-05-03T14:18:41.069Z,11.95
2019-05-03T14:21:11.351Z,12.11
2019-05-03T14:23:56.772Z,12.33
2019-05-03T14:26:24.698Z,12.75
2019-05-03T14:28:52.438Z,13.12
2019-05-03T14:31:19.588Z,13.23
2019-05-03T14:33:46.267Z,13.41
2019-05-03T14:36:15.982Z,13.31
2019-05-03T14:38:41.664Z,13.28
2019-05-03T14:41:09.646Z,13.53
2019-05-03T14:43:36.240Z,13.28
2019-05-03T14:46:05.584Z,13.29
2019-05-03T14:48:32.435Z,12.80
2019-05-03T14:50:59.173Z,12.65
2019-05-03T14:53:27.781Z,12.57
2019-05-03T14:55:56.417Z,12.48
2019-05-03T14:58:41.756Z,12.71
2019-05-03T15:01:10.786Z,12.84
2019-05-03T15:03:37.776Z,12.65
2019-05-03T15:06:05.155Z,12.81
2019-05-03T15:08:32.244Z,12.67
2019-05-03T15:10:59.318Z,12.75
2019-05-03T15:13:25.967Z,12.70
2019-05-03T15:15:54.706Z,12.98
2019-05-03T15:18:25.402Z,13.09
2019-05-03T15:20:52.398Z,12.87
2019-05-03T15:23:19.373Z,12.59
2019-05-03T15:25:46.289Z,12.41
2019-05-03T15:28:13.039Z,12.71
2019-05-03T15:30:39.977Z,12.86
2019-05-03T15:33:06.880Z,12.69
2019-05-03T15:35:35.225Z,12.89
2019-05-03T15:38:02.611Z,12.83
2019-05-03T15:40:30.016Z,12.72
2019-05-03T15:42:58.771Z,12.52
2019-05-03T15:45:39.982Z,12.22
2019-05-03T15:48:08.699Z,11.91
2019-05-03T15:50:35.640Z,11.51
2019-05-03T15:53:04.378Z,10.97
2019-05-03T15:55:31.378Z,10.52
2019-05-03T15:57:59.231Z,10.45
2019-05-03T16:00:26.210Z,10.32
2019-05-03T16:02:54.763Z,9.75
2019-05-03T16:05:22.228Z,9.93
2019-05-03T16:07:50.130Z,9.54
2019-05-03T16:10:17.063Z,9.37
2019-05-03T16:12:45.040Z,9.45
2019-05-03T16:15:12.142Z,9.19
2019-05-03T16:17:39.082Z,9.61
2019-05-03T16:20:06.034Z,9.93
2019-05-03T16:22:32.873Z,10.11
2019-05-03T16:24:59.653Z,9.71
2019-05-03T16:27:28.508Z,10.01
2019-05-03T16:29:55.555Z,9.83
2019-05-03T16:32:22.232Z,10.12
2019-05-03T16:34:49.081Z,10.19
2019-05-03T16:37:17.311Z,10.32
2019-05-03T16:39:45.388Z,10.11
2019-05-03T16:42:15.404Z,9.71
2019-05-03T16:44:44.316Z,10.29
2019-05-03T16:47:11.552Z,10.58
2019-05-03T16:49:40.243Z,10.68
2019-05-03T16:52:07.287Z,10.42
2019-05-03T16:54:34.926Z,10.27
2019-05-03T16:57:02.288Z,10.05
2019-05-03T16:59:29.605Z,10.01
2019-05-03T17:01:56.834Z,10.08
2019-05-03T17:04:28.836Z,10.21
2019-05-03T17:07:15.219Z,10.04
2019-05-03T17:09:57.177Z,10.35
2019-05-03T17:12:25.967Z,10.37
2019-05-03T17:14:54.712Z,10.20
2019-05-03T17:17:25.121Z,10.22
2019-05-03T17:19:52.179Z,10.43
2019-05-03T17:22:19.198Z,10.35
2019-05-03T17:24:53.179Z,10.53
2019-05-03T17:27:20.360Z,10.35
2019-05-03T17:29:47.192Z,10.33
2019-05-03T17:32:15.289Z,9.86
2019-05-03T17:34:45.277Z,9.85
2019-05-03T17:37:12.334Z,10.05
2019-05-03T17:39:41.351Z,10.01
2019-05-03T17:42:15.058Z,10.14
2019-05-03T17:44:46.623Z,10.34
2019-05-03T17:47:15.580Z,10.24
2019-05-03T17:49:45.155Z,9.81
2019-05-03T17:52:15.416Z,9.76
2019-05-03T17:54:44.837Z,9.50
2019-05-03T17:57:24.380Z,9.77
2019-05-03T17:59:54.857Z,9.61
2019-05-03T18:02:35.849Z,9.54
2019-05-03T18:05:21.949Z,9.72
2019-05-03T18:07:59.637Z,9.84
2019-05-03T18:10:28.012Z,9.80
2019-05-03T18:12:55.789Z,9.97
2019-05-03T18:15:22.638Z,9.96
2019-05-03T18:17:49.369Z,9.84
2019-05-03T18:20:16.099Z,9.84
2019-05-03T18:22:43.073Z,9.94
2019-05-03T18:25:10.207Z,9.77
2019-05-03T18:27:37.005Z,9.77
2019-05-03T18:30:04.798Z,9.83
2019-05-03T18:32:31.826Z,9.92
2019-05-03T18:34:58.906Z,9.97
2019-05-03T18:37:27.084Z,9.98
2019-05-03T18:39:54.691Z,9.84
2019-05-03T18:42:24.548Z,9.71
2019-05-03T18:44:55.219Z,9.69
2019-05-03T18:47:25.191Z,9.54
2019-05-03T18:49:52.404Z,9.59
2019-05-03T18:52:19.208Z,9.46
2019-05-03T18:54:46.038Z,9.42
2019-05-03T18:57:12.870Z,9.46
2019-05-03T18:59:40.358Z,9.36
2019-05-03T19:02:07.401Z,9.33
2019-05-03T19:04:37.909Z,9.05
2019-05-03T19:07:07.315Z,9.02
2019-05-03T19:09:38.955Z,9.03
2019-05-03T19:12:15.279Z,9.32
2019-05-03T19:14:42.163Z,9.38
2019-05-03T19:17:20.220Z,9.42
2019-05-03T19:19:55.279Z,9.14
2019-05-03T19:22:22.330Z,8.90
2019-05-03T19:24:51.283Z,9.04
2019-05-03T19:27:18.425Z,9.15
2019-05-03T19:29:45.370Z,9.34
2019-05-03T19:32:12.335Z,9.27
2019-05-03T19:34:50.049Z,9.20
2019-05-03T19:37:08.367Z,9.21
2019-05-03T19:39:35.594Z,9.31
2019-05-03T19:42:02.660Z,9.19
2019-05-03T19:44:30.013Z,8.96
2019-05-03T19:46:57.061Z,9.01
2019-05-03T19:49:26.620Z,9.03
2019-05-03T19:51:54.510Z,9.07
2019-05-03T19:54:23.120Z,9.21
2019-05-03T19:56:50.247Z,9.19
2019-05-03T19:59:35.990Z,9.04
2019-05-03T20:02:21.436Z,8.85
2019-05-03T20:04:57.755Z,8.85
2019-05-03T20:07:21.061Z,8.63
2019-05-03T20:09:47.758Z,8.59
2019-05-03T20:12:15.174Z,8.30
2019-05-03T20:14:42.212Z,8.30
2019-05-03T20:17:09.211Z,8.19
2019-05-03T20:19:36.355Z,7.95
2019-05-03T20:22:05.119Z,7.93
2019-05-03T20:24:32.048Z,7.96
2019-05-03T20:26:59.137Z,8.02
2019-05-03T20:29:26.060Z,7.60
2019-05-03T20:31:55.040Z,7.52
2019-05-03T20:34:21.982Z,7.36
2019-05-03T20:36:48.840Z,7.26
2019-05-03T20:39:15.977Z,7.20
2019-05-03T20:41:45.183Z,7.35
2019-05-03T20:44:14.370Z,7.42
2019-05-03T20:46:46.189Z,7.46
2019-05-03T20:49:15.114Z,7.30
2019-05-03T20:51:45.033Z,7.12
2019-05-03T20:54:12.717Z,7.13
2019-05-03T20:56:39.856Z,7.21
2019-05-03T20:59:06.600Z,7.25
2019-05-03T21:01:34.746Z,7.26
2019-05-03T21:04:02.155Z,7.15
2019-05-03T21:06:35.409Z,7.15
2019-05-03T21:08:57.945Z,7.23
2019-05-03T21:11:25.325Z,7.08
2019-05-03T21:13:52.261Z,6.87
2019-05-03T21:16:29.901Z,6.92
2019-05-03T21:19:01.403Z,6.81
2019-05-03T21:21:30.052Z,6.78
2019-05-03T21:23:58.607Z,6.69
2019-05-03T21:26:25.611Z,6.64
2019-05-03T21:28:55.281Z,6.63
2019-05-03T21:31:22.073Z,6.74
2019-05-03T21:33:49.973Z,6.69
2019-05-03T21:36:16.891Z,6.66
2019-05-03T21:38:44.437Z,6.63
2019-05-03T21:41:11.195Z,6.78
2019-05-03T21:43:37.924Z,6.78
2019-05-03T21:46:12.369Z,6.82
2019-05-03T21:48:50.239Z,6.75
2019-05-03T21:51:16.938Z,6.82
2019-05-03T21:53:45.051Z,6.68
2019-05-03T21:56:14.206Z,6.67
2019-05-03T21:58:41.109Z,6.65
2019-05-03T22:01:10.166Z,6.66
2019-05-03T22:03:37.048Z,6.68
2019-05-03T22:06:03.818Z,6.64
2019-05-03T22:08:30.710Z,6.66
2019-05-03T22:10:57.819Z,6.66
2019-05-03T22:13:24.867Z,6.66
2019-05-03T22:15:54.029Z,6.67
2019-05-03T22:18:24.506Z,6.64
2019-05-03T22:20:54.887Z,6.68
2019-05-03T22:23:26.960Z,6.65
2019-05-03T22:25:54.307Z,6.76
2019-05-03T22:28:24.544Z,6.59
2019-05-03T22:30:51.594Z,6.68
2019-05-03T22:33:18.584Z,6.69
2019-05-03T22:35:45.158Z,6.66
2019-05-03T22:38:11.833Z,6.73
2019-05-03T22:40:40.090Z,6.73
2019-05-03T22:43:07.552Z,6.74
2019-05-03T22:45:34.776Z,6.70
2019-05-03T22:48:05.120Z,6.67
2019-05-03T22:50:34.468Z,6.75
2019-05-03T22:53:01.877Z,6.78
2019-05-03T22:55:28.922Z,6.83
2019-05-03T22:57:55.868Z,6.85
2019-05-03T23:00:25.027Z,6.81
2019-05-03T23:02:51.328Z,6.76
2019-05-03T23:05:18.138Z,6.73
2019-05-03T23:07:46.919Z,6.82
2019-05-03T23:10:14.798Z,6.83
2019-05-03T23:12:42.583Z,6.80
2019-05-03T23:15:10.834Z,6.68
2019-05-03T23:17:37.802Z,6.67
2019-05-03T23:20:06.608Z,6.62
2019-05-03T23:22:35.154Z,6.55
2019-05-03T23:25:02.509Z,6.66
2019-05-03T23:27:30.422Z,6.69
2019-05-03T23:29:57.453Z,6.71
2019-05-03T23:32:24.620Z,6.55
2019-05-03T23:34:51.725Z,6.64
2019-05-03T23:37:18.443Z,6.71
2019-05-03T23:39:45.360Z,6.75
2019-05-03T23:42:12.577Z,6.81
2019-05-03T23:44:39.710Z,6.82
2019-05-03T23:47:08.520Z,6.84
2019-05-03T23:49:35.654Z,6.90
2019-05-03T23:52:04.578Z,6.88
2019-05-03T23:54:31.453Z,7.00
2019-05-03T23:56:58.439Z,6.95
2019-05-03T23:59:25.281Z,6.92
